createdAt,value
2023-04-10T00:02:55.006Z,98794.97
2023-04-10T00:05:57.769Z,98795.69
2023-04-10T00:09:00.568Z,98793.94
2023-04-10T00:12:03.557Z,98794.34
2023-04-10T00:15:09.537Z,98791.00
2023-04-10T00:18:12.903Z,98796.94
2023-04-10T00:21:15.640Z,98801.00
2023-04-10T00:24:18.288Z,98797.59
2023-04-10T00:27:20.920Z,98800.41
2023-04-10T00:30:25.342Z,98797.63
2023-04-10T00:33:27.958Z,98791.75
2023-04-10T00:36:31.540Z,98787.81
2023-04-10T00:39:34.183Z,98785.63
2023-04-10T00:42:37.200Z,98786.56
2023-04-10T00:45:41.849Z,98784.59
2023-04-10T00:48:44.545Z,98777.09
2023-04-10T00:51:48.818Z,98779.50
2023-04-10T00:54:51.549Z,98780.66
2023-04-10T00:57:56.611Z,98774.19
2023-04-10T01:01:01.020Z,98785.19
2023-04-10T01:04:04.221Z,98786.00
2023-04-10T01:07:12.253Z,98774.41
2023-04-10T01:10:19.153Z,98780.91
2023-04-10T01:13:26.655Z,98791.66
2023-04-10T01:16:35.103Z,98786.09
2023-04-10T01:20:01.033Z,98788.41
2023-04-10T01:23:22.685Z,98777.06
2023-04-10T01:26:41.145Z,98791.03
2023-04-10T01:29:48.959Z,98793.81
2023-04-10T01:32:56.952Z,98785.56
2023-04-10T01:36:04.304Z,98786.88
2023-04-10T01:39:08.617Z,98789.47
2023-04-10T01:42:15.080Z,98780.91
2023-04-10T01:45:23.169Z,98785.13
2023-04-10T01:48:26.598Z,98773.78
2023-04-10T01:51:31.515Z,98768.59
2023-04-10T01:54:35.318Z,98773.31
2023-04-10T01:57:37.946Z,98769.19
2023-04-10T02:00:43.138Z,98768.81
2023-04-10T02:03:46.205Z,98771.13
2023-04-10T02:06:58.670Z,98764.88
2023-04-10T02:10:05.954Z,98760.81
2023-04-10T02:13:10.042Z,98764.13
2023-04-10T02:16:17.350Z,98764.91
2023-04-10T02:19:20.997Z,98766.09
2023-04-10T02:22:25.540Z,98774.00
2023-04-10T02:25:28.295Z,98771.75
2023-04-10T02:28:30.936Z,98769.81
2023-04-10T02:31:35.046Z,98770.59
2023-04-10T02:34:37.734Z,98767.94
2023-04-10T02:37:40.507Z,98762.03
2023-04-10T02:40:43.118Z,98773.13
2023-04-10T02:43:45.731Z,98775.78
2023-04-10T02:46:49.745Z,98766.03
2023-04-10T02:49:52.548Z,98768.94
2023-04-10T02:52:55.465Z,98778.97
2023-04-10T02:55:58.091Z,98777.34
2023-04-10T02:59:01.520Z,98785.91
2023-04-10T03:02:05.664Z,98785.56
2023-04-10T03:05:09.093Z,98781.19
2023-04-10T03:08:11.695Z,98772.97
2023-04-10T03:11:14.333Z,98773.06
2023-04-10T03:14:16.949Z,98767.16
2023-04-10T03:17:20.890Z,98771.31
2023-04-10T03:20:23.468Z,98764.47
2023-04-10T03:23:26.489Z,98757.97
2023-04-10T03:26:29.239Z,98758.97
2023-04-10T03:29:31.881Z,98757.25
2023-04-10T03:32:35.998Z,98750.66
2023-04-10T03:35:38.726Z,98753.53
2023-04-10T03:38:41.511Z,98747.22
2023-04-10T03:41:44.179Z,98741.88
2023-04-10T03:44:46.766Z,98745.22
2023-04-10T03:47:51.079Z,98741.50
2023-04-10T03:50:53.700Z,98749.56
2023-04-10T03:53:56.460Z,98739.19
2023-04-10T03:56:59.211Z,98744.69
2023-04-10T04:00:02.702Z,98737.53
2023-04-10T04:03:07.006Z,98739.66
2023-04-10T04:06:09.834Z,98741.09
2023-04-10T04:09:12.539Z,98735.34
2023-04-10T04:12:15.411Z,98727.13
2023-04-10T04:15:17.994Z,98737.41
2023-04-10T04:18:21.983Z,98726.63
2023-04-10T04:21:24.553Z,98723.31
2023-04-10T04:24:27.205Z,98723.00
2023-04-10T04:27:29.822Z,98727.16
2023-04-10T04:30:32.610Z,98729.50
2023-04-10T04:33:36.591Z,98723.38
2023-04-10T04:36:39.176Z,98732.38
2023-04-10T04:39:41.805Z,98729.50
2023-04-10T04:42:44.395Z,98736.75
2023-04-10T04:45:47.103Z,98731.22
2023-04-10T04:48:51.304Z,98723.38
2023-04-10T04:51:53.878Z,98721.91
2023-04-10T04:54:56.465Z,98720.66
2023-04-10T04:57:59.113Z,98726.31
2023-04-10T05:01:01.895Z,98722.69
2023-04-10T05:04:06.062Z,98726.72
2023-04-10T05:07:08.750Z,98734.16
2023-04-10T05:10:11.586Z,98728.44
2023-04-10T05:13:15.723Z,98727.72
2023-04-10T05:16:18.387Z,98729.41
2023-04-10T05:19:22.488Z,98724.59
2023-04-10T05:22:25.132Z,98728.63
2023-04-10T05:25:27.926Z,98728.78
2023-04-10T05:28:30.705Z,98739.22
2023-04-10T05:31:33.399Z,98737.16
2023-04-10T05:34:38.627Z,98734.75
2023-04-10T05:37:41.708Z,98732.00
2023-04-10T05:40:46.780Z,98726.34
2023-04-10T05:43:49.750Z,98725.66
2023-04-10T05:46:52.447Z,98729.81
2023-04-10T05:49:56.559Z,98732.81
2023-04-10T05:52:59.436Z,98733.41
2023-04-10T05:56:02.257Z,98730.63
2023-04-10T05:59:05.172Z,98736.06
2023-04-10T06:02:08.105Z,98731.69
2023-04-10T06:05:12.434Z,98737.72
2023-04-10T06:08:15.420Z,98743.69
2023-04-10T06:11:18.366Z,98741.94
2023-04-10T06:14:21.343Z,98741.88
2023-04-10T06:17:25.737Z,98739.63
2023-04-10T06:20:29.961Z,98724.13
2023-04-10T06:23:32.644Z,98734.50
2023-04-10T06:26:35.416Z,98737.94
2023-04-10T06:29:38.079Z,98735.44
2023-04-10T06:32:40.829Z,98726.88
2023-04-10T06:35:45.037Z,98730.44
2023-04-10T06:38:47.802Z,98728.50
2023-04-10T06:41:50.677Z,98726.50
2023-04-10T06:44:53.550Z,98724.03
2023-04-10T06:47:56.488Z,98721.03
2023-04-10T06:51:01.603Z,98721.59
2023-04-10T06:54:04.402Z,98720.19
2023-04-10T06:57:07.825Z,98715.38
2023-04-10T07:00:11.735Z,98708.56
2023-04-10T07:03:14.631Z,98698.00
2023-04-10T07:06:18.819Z,98695.22
2023-04-10T07:09:21.640Z,98681.66
2023-04-10T07:12:24.461Z,98684.75
2023-04-10T07:15:27.171Z,98687.53
2023-04-10T07:18:29.954Z,98692.69
2023-04-10T07:21:34.130Z,98688.56
2023-04-10T07:24:37.514Z,98682.91
2023-04-10T07:27:40.268Z,98692.19
2023-04-10T07:30:42.972Z,98691.38
2023-04-10T07:33:46.733Z,98699.16
2023-04-10T07:36:51.023Z,98695.34
2023-04-10T07:39:53.850Z,98692.34
2023-04-10T07:42:56.600Z,98688.00
2023-04-10T07:45:59.652Z,98693.38
2023-04-10T07:49:02.459Z,98684.44
2023-04-10T07:52:06.595Z,98689.22
2023-04-10T07:55:10.606Z,98694.19
2023-04-10T07:58:13.642Z,98693.78
2023-04-10T08:01:16.783Z,98682.94
2023-04-10T08:04:19.774Z,98687.19
2023-04-10T08:07:24.283Z,98686.63
2023-04-10T08:10:27.133Z,98686.22
2023-04-10T08:13:29.944Z,98683.69
2023-04-10T08:16:35.286Z,98676.66
2023-04-10T08:19:38.058Z,98679.09
2023-04-10T08:22:42.191Z,98677.16
2023-04-10T08:25:44.946Z,98671.47
2023-04-10T08:28:50.105Z,98668.56
2023-04-10T08:31:52.844Z,98668.94
2023-04-10T08:34:55.884Z,98671.41
2023-04-10T08:38:12.691Z,98667.59
2023-04-10T08:41:18.800Z,98663.13
2023-04-10T08:44:21.544Z,98656.72
2023-04-10T08:47:29.033Z,98659.81
2023-04-10T08:50:35.244Z,98658.44
2023-04-10T08:53:44.521Z,98658.81
2023-04-10T08:56:51.414Z,98651.31
2023-04-10T08:59:54.539Z,98647.72
2023-04-10T09:06:20.672Z,98645.13
2023-04-10T09:09:24.691Z,98646.66
2023-04-10T09:12:27.552Z,98639.75
2023-04-10T09:15:30.278Z,98644.78
2023-04-10T09:18:47.301Z,98644.47
2023-04-10T09:21:51.520Z,98637.50
2023-04-10T09:24:55.634Z,98632.69
2023-04-10T09:28:02.488Z,98629.59
2023-04-10T09:31:30.657Z,98624.88
2023-04-10T09:34:33.376Z,98614.09
2023-04-10T09:37:37.482Z,98609.94
2023-04-10T09:40:40.418Z,98609.50
2023-04-10T09:43:45.801Z,98594.25
2023-04-10T09:46:50.641Z,98602.22
2023-04-10T09:49:54.763Z,98586.31
2023-04-10T09:52:58.932Z,98587.31
2023-04-10T09:56:01.914Z,98575.84
2023-04-10T09:59:07.007Z,98578.88
2023-04-10T10:02:12.421Z,98574.34
2023-04-10T10:05:15.662Z,98565.78
2023-04-10T10:08:19.063Z,98569.75
2023-04-10T10:11:24.910Z,98560.25
2023-04-10T10:14:29.136Z,98558.81
2023-04-10T10:17:40.393Z,98546.84
2023-04-10T10:20:47.350Z,98541.28
2023-04-10T10:23:54.194Z,98538.44
2023-04-10T10:26:58.251Z,98528.06
2023-04-10T10:30:08.414Z,98521.66
2023-04-10T10:33:20.565Z,98503.91
2023-04-10T10:36:23.739Z,98510.63
2023-04-10T10:39:33.668Z,98501.81
2023-04-10T10:42:43.427Z,98514.94
2023-04-10T10:45:53.492Z,98496.69
2023-04-10T10:49:01.800Z,98477.84
2023-04-10T10:52:04.653Z,98489.53
2023-04-10T10:55:31.392Z,98485.22
2023-04-10T10:58:48.117Z,98470.34
2023-04-10T11:02:14.076Z,98477.38
2023-04-10T11:05:52.153Z,98471.78
2023-04-10T11:08:55.314Z,98478.34
2023-04-10T11:12:00.049Z,98467.47
2023-04-10T11:15:05.021Z,98470.94
2023-04-10T11:18:07.751Z,98455.94
2023-04-10T11:21:13.420Z,98455.28
2023-04-10T11:24:16.391Z,98448.97
2023-04-10T11:27:46.459Z,98455.06
2023-04-10T11:30:49.399Z,98446.03
2023-04-10T11:34:02.417Z,98447.38
2023-04-10T11:37:07.191Z,98443.50
2023-04-10T11:40:11.846Z,98446.63
2023-04-10T11:43:15.351Z,98454.91
2023-04-10T11:46:18.857Z,98454.91
2023-04-10T11:49:23.067Z,98448.66
2023-04-10T11:52:27.674Z,98447.13
2023-04-10T11:55:40.804Z,98429.47
2023-04-10T11:58:44.147Z,98427.22
2023-04-10T12:01:47.987Z,98415.84
2023-04-10T12:04:59.667Z,98406.47
2023-04-10T12:08:04.920Z,98393.69
2023-04-10T12:11:09.648Z,98380.22
2023-04-10T12:14:12.389Z,98390.38
2023-04-10T12:17:15.421Z,98390.31
2023-04-10T12:20:18.699Z,98379.47
2023-04-10T12:23:23.408Z,98381.81
2023-04-10T12:26:26.265Z,98379.78
2023-04-10T12:29:29.261Z,98372.19
2023-04-10T12:32:32.895Z,98375.59
2023-04-10T12:35:39.633Z,98365.09
2023-04-10T12:38:45.014Z,98364.69
2023-04-10T12:41:47.777Z,98359.94
2023-04-10T12:44:55.312Z,98359.22
2023-04-10T12:47:58.282Z,98355.75
2023-04-10T12:51:01.287Z,98342.16
2023-04-10T12:54:05.321Z,98334.59
2023-04-10T12:57:08.555Z,98341.06
2023-04-10T13:00:13.558Z,98331.22
2023-04-10T13:03:16.586Z,98319.13
2023-04-10T13:06:19.581Z,98323.34
2023-04-10T13:09:23.808Z,98327.22
2023-04-10T13:12:27.172Z,98316.91
2023-04-10T13:15:30.126Z,98313.00
2023-04-10T13:18:32.945Z,98306.97
2023-04-10T13:21:35.728Z,98303.25
2023-04-10T13:24:39.850Z,98299.59
2023-04-10T13:27:42.669Z,98297.22
2023-04-10T13:30:45.640Z,98311.31
2023-04-10T13:33:48.848Z,98300.41
2023-04-10T13:36:51.798Z,98301.47
2023-04-10T13:39:56.682Z,98284.16
2023-04-10T13:42:59.600Z,98289.69
2023-04-10T13:46:02.280Z,98285.06
2023-04-10T13:49:05.078Z,98282.84
2023-04-10T13:52:07.839Z,98277.22
2023-04-10T13:55:12.048Z,98276.50
2023-04-10T13:58:15.328Z,98270.31
2023-04-10T14:01:18.317Z,98255.50
2023-04-10T14:04:21.320Z,98266.50
2023-04-10T14:07:24.160Z,98270.69
2023-04-10T14:10:28.430Z,98262.38
2023-04-10T14:13:31.104Z,98259.06
2023-04-10T14:16:33.803Z,98243.84
2023-04-10T14:19:36.661Z,98235.84
2023-04-10T14:22:39.475Z,98226.88
2023-04-10T14:25:43.688Z,98224.50
2023-04-10T14:28:46.336Z,98236.50
2023-04-10T14:31:57.664Z,98222.38
2023-04-10T14:35:01.249Z,98214.88
2023-04-10T14:38:04.593Z,98227.34
2023-04-10T14:41:08.964Z,98218.25
2023-04-10T14:44:11.744Z,98219.53
2023-04-10T14:47:14.552Z,98214.59
2023-04-10T14:50:17.523Z,98212.75
2023-04-10T14:53:21.706Z,98220.19
2023-04-10T14:56:25.806Z,98207.19
2023-04-10T14:59:28.688Z,98211.84
2023-04-10T15:02:31.475Z,98202.94
2023-04-10T15:05:34.286Z,98194.25
2023-04-10T15:08:37.015Z,98194.56
2023-04-10T15:11:41.414Z,98186.59
2023-04-10T15:14:44.178Z,98177.97
2023-04-10T15:17:46.891Z,98175.06
2023-04-10T15:20:49.558Z,98176.47
2023-04-10T15:23:52.613Z,98175.47
2023-04-10T15:26:57.708Z,98162.31
2023-04-10T15:30:00.490Z,98161.41
2023-04-10T15:33:03.304Z,98150.41
2023-04-10T15:36:07.605Z,98151.53
2023-04-10T15:39:12.219Z,98150.78
2023-04-10T15:42:16.798Z,98142.09
2023-04-10T15:45:19.828Z,98143.91
2023-04-10T15:48:24.691Z,98146.16
2023-04-10T15:51:28.099Z,98137.72
2023-04-10T15:54:30.842Z,98129.28
2023-04-10T15:57:34.988Z,98129.75
2023-04-10T16:00:38.195Z,98128.53
2023-04-10T16:03:41.466Z,98129.31
2023-04-10T16:06:44.321Z,98124.25
2023-04-10T16:09:47.082Z,98117.75
2023-04-10T16:12:51.341Z,98115.66
2023-04-10T16:15:54.037Z,98113.56
2023-04-10T16:18:56.821Z,98108.16
2023-04-10T16:21:59.579Z,98111.53
2023-04-10T16:28:13.413Z,98112.69
2023-04-10T16:31:16.455Z,98107.88
2023-04-10T16:34:19.141Z,98101.34
2023-04-10T16:37:21.815Z,98099.09
2023-04-10T16:40:27.653Z,98075.16
2023-04-10T16:43:31.824Z,98068.78
2023-04-10T16:46:34.708Z,98060.03
2023-04-10T16:49:37.489Z,98061.19
2023-04-10T16:52:40.216Z,98054.75
2023-04-10T16:55:42.831Z,98044.75
2023-04-10T16:58:47.118Z,98047.16
2023-04-10T17:01:49.766Z,98050.69
2023-04-10T17:04:52.436Z,98049.25
2023-04-10T17:07:55.036Z,98051.88
2023-04-10T17:10:57.671Z,98046.78
2023-04-10T17:14:03.203Z,98049.78
2023-04-10T17:17:06.466Z,98051.72
2023-04-10T17:20:10.692Z,98051.06
2023-04-10T17:23:13.521Z,98056.81
2023-04-10T17:26:17.617Z,98055.03
2023-04-10T17:29:22.280Z,98050.25
2023-04-10T17:32:24.954Z,98045.66
2023-04-10T17:35:27.600Z,98050.13
2023-04-10T17:38:30.229Z,98044.06
2023-04-10T17:41:32.845Z,98038.78
2023-04-10T17:44:36.970Z,98038.97
2023-04-10T17:47:40.203Z,98032.09
2023-04-10T17:50:42.815Z,98033.72
2023-04-10T17:53:46.158Z,98026.03
2023-04-10T17:56:54.905Z,98019.34
2023-04-10T18:00:01.614Z,98012.66
2023-04-10T18:03:06.557Z,98014.56
2023-04-10T18:06:11.286Z,98014.41
2023-04-10T18:09:15.798Z,98011.22
2023-04-10T18:12:20.189Z,98002.13
2023-04-10T18:15:26.547Z,97983.13
2023-04-10T18:18:30.662Z,97975.50
2023-04-10T18:21:36.153Z,97968.97
2023-04-10T18:24:41.002Z,97963.59
2023-04-10T18:27:59.748Z,97970.13
2023-04-10T18:31:15.003Z,97994.81
2023-04-10T18:34:20.245Z,98007.38
2023-04-10T18:37:24.500Z,98006.81
2023-04-10T18:40:30.065Z,98005.50
2023-04-10T18:43:34.112Z,98025.66
2023-04-10T18:46:42.653Z,98024.66
2023-04-10T18:49:48.240Z,98031.25
2023-04-10T18:52:51.991Z,98045.63
2023-04-10T18:55:56.528Z,98050.81
2023-04-10T18:59:00.634Z,98038.28
2023-04-10T19:02:06.434Z,98039.88
2023-04-10T19:05:14.548Z,98038.31
2023-04-10T19:08:18.910Z,98046.25
2023-04-10T19:11:22.982Z,98038.00
2023-04-10T19:14:26.832Z,98047.25
2023-04-10T19:17:32.122Z,98041.50
2023-04-10T19:20:51.209Z,98038.78
2023-04-10T19:23:57.697Z,98029.84
2023-04-10T19:27:02.761Z,98016.97
2023-04-10T19:30:06.918Z,98028.28
2023-04-10T19:33:11.997Z,98039.72
2023-04-10T19:36:18.120Z,98044.16
2023-04-10T19:39:21.694Z,98058.00
2023-04-10T19:42:25.501Z,98060.06
2023-04-10T19:45:29.716Z,98052.53
2023-04-10T19:48:34.922Z,98055.91
2023-04-10T19:51:39.223Z,98042.16
2023-04-10T19:54:43.371Z,98035.31
2023-04-10T19:57:47.904Z,98042.34
2023-04-10T20:00:52.240Z,98047.75
2023-04-10T20:03:59.858Z,98049.81
2023-04-10T20:07:04.550Z,98044.88
2023-04-10T20:10:09.280Z,98043.44
2023-04-10T20:13:13.224Z,98037.69
2023-04-10T20:16:17.335Z,98027.63
2023-04-10T20:19:23.074Z,98025.41
2023-04-10T20:22:27.158Z,98009.19
2023-04-10T20:25:31.187Z,98010.47
2023-04-10T20:28:36.036Z,98014.91
2023-04-10T20:31:40.050Z,98017.78
2023-04-10T20:34:46.254Z,98015.53
2023-04-10T20:37:50.240Z,98011.72
2023-04-10T20:40:53.711Z,98009.28
2023-04-10T20:43:59.809Z,98007.50
2023-04-10T20:47:03.588Z,98002.78
2023-04-10T20:50:12.291Z,98007.44
2023-04-10T20:53:17.643Z,98000.09
2023-04-10T20:56:24.926Z,97993.56
2023-04-10T20:59:33.914Z,97991.84
2023-04-10T21:07:20.899Z,97990.41
2023-04-10T21:10:24.637Z,97975.00
2023-04-10T21:13:28.540Z,97973.84
2023-04-10T21:16:32.721Z,97967.03
2023-04-10T21:19:36.789Z,97963.34
2023-04-10T21:22:42.942Z,97958.56
2023-04-10T21:25:53.514Z,97970.00
2023-04-10T21:28:57.442Z,97967.44
2023-04-10T21:32:00.729Z,97958.88
2023-04-10T21:35:03.613Z,97975.41
2023-04-10T21:38:08.186Z,97990.81
2023-04-10T21:41:11.333Z,97984.13
2023-04-10T21:44:14.040Z,97973.50
2023-04-10T21:47:16.706Z,97967.78
2023-04-10T21:50:19.559Z,97977.75
2023-04-10T21:53:23.712Z,97984.56
2023-04-10T21:56:26.481Z,97972.28
2023-04-10T21:59:31.735Z,97956.53
2023-04-10T22:02:34.680Z,97947.94
2023-04-10T22:05:37.430Z,97935.09
2023-04-10T22:08:42.035Z,97920.81
2023-04-10T22:11:44.896Z,97904.91
2023-04-10T22:14:49.220Z,97915.53
2023-04-10T22:17:51.975Z,97906.47
2023-04-10T22:20:54.936Z,97910.56
2023-04-10T22:23:58.969Z,97897.97
2023-04-10T22:27:01.921Z,97894.50
2023-04-10T22:30:04.998Z,97884.03
2023-04-10T22:33:07.775Z,97878.09
2023-04-10T22:36:11.133Z,97859.50
2023-04-10T22:39:15.776Z,97834.19
2023-04-10T22:42:18.679Z,97826.88
2023-04-10T22:45:21.495Z,97828.66
2023-04-10T22:48:24.319Z,97819.72
2023-04-10T22:51:27.615Z,97821.44
2023-04-10T22:54:31.770Z,97816.53
2023-04-10T22:57:34.854Z,97813.63
2023-04-10T23:00:37.751Z,97799.63
2023-04-10T23:03:40.522Z,97789.28
2023-04-10T23:06:43.216Z,97794.53
2023-04-10T23:09:47.250Z,97812.03
2023-04-10T23:12:49.915Z,97836.03
2023-04-10T23:15:53.356Z,97844.78
2023-04-10T23:18:56.424Z,97817.25
2023-04-10T23:21:59.471Z,97812.50
2023-04-10T23:25:03.593Z,97804.72
2023-04-10T23:28:06.599Z,97817.44
2023-04-10T23:31:10.123Z,97816.28
2023-04-10T23:34:12.784Z,97817.56
2023-04-10T23:37:15.441Z,97815.66
2023-04-10T23:40:20.791Z,97803.75
2023-04-10T23:43:23.696Z,97802.63
2023-04-10T23:46:26.577Z,97800.09
2023-04-10T23:49:29.828Z,97791.03
2023-04-10T23:52:32.647Z,97790.75
2023-04-10T23:55:37.195Z,97794.06
2023-04-10T23:58:39.876Z,97796.16
